Time;durP1;ratioP1;P1;durP2;ratioP2;P2;SDS_P1;SDS_P2;PMS_P1;PMS_P2;Temp;Humidity;BMP_temperature;BMP_pressure;BME280_temperature;BME280_humidity;BME280_pressure;Samples;Min_cycle;Max_cycle;Signal;HPM_P1;HPM_P2
2021/10/21 00:02:19;;;;;;;17.85;11.63;;;;;;;5.00;77.75;97306.13;5094943;28;20500;-62
2021/10/21 00:04:44;;;;;;;15.93;12.32;;;;;;;4.98;77.94;97302.66;5094733;28;20056;-62
2021/10/21 00:07:11;;;;;;;17.98;11.18;;;;;;;4.95;78.35;97294.91;5094908;28;20127;-63
2021/10/21 00:09:37;;;;;;;16.25;11.55;;;;;;;4.98;78.28;97294.88;5094874;28;20107;-61
2021/10/21 00:12:03;;;;;;;14.40;10.80;;;;;;;5.01;77.96;97292.28;5095004;28;20028;-61
2021/10/21 00:14:29;;;;;;;16.45;10.52;;;;;;;5.00;77.54;97286.22;5094755;28;20430;-62
2021/10/21 00:16:56;;;;;;;15.88;10.82;;;;;;;4.99;77.22;97294.00;5094756;28;20026;-62
2021/10/21 00:19:22;;;;;;;15.70;11.18;;;;;;;4.98;76.97;97289.69;5094776;28;20028;-61
2021/10/21 00:21:50;;;;;;;16.27;12.05;;;;;;;4.98;77.28;97292.28;5076672;28;20016;-61
2021/10/21 00:24:17;;;;;;;17.63;11.77;;;;;;;4.97;77.46;97283.66;5094562;28;20073;-61
2021/10/21 00:26:43;;;;;;;13.40;10.10;;;;;;;5.02;76.67;97292.28;5094603;28;20024;-62
2021/10/21 00:29:09;;;;;;;18.55;10.93;;;;;;;4.96;76.82;97284.53;5094565;28;20016;-61
2021/10/21 00:31:34;;;;;;;19.45;11.82;;;;;;;4.94;76.82;97288.88;5094452;28;20032;-60
2021/10/21 00:34:00;;;;;;;27.20;17.40;;;;;;;4.79;77.02;97282.84;5094581;28;20028;-63
2021/10/21 00:36:25;;;;;;;20.42;14.85;;;;;;;4.77;77.35;97269.03;5094429;28;20018;-63
2021/10/21 00:38:51;;;;;;;19.65;12.82;;;;;;;4.80;77.35;97271.63;5094376;28;20036;-61
2021/10/21 00:41:17;;;;;;;17.55;11.75;;;;;;;4.79;77.27;97269.03;5094276;28;20020;-61
2021/10/21 00:43:43;;;;;;;15.60;11.45;;;;;;;4.76;77.10;97267.28;5094185;28;20020;-62
2021/10/21 00:46:11;;;;;;;15.57;11.18;;;;;;;4.69;77.22;97255.22;5094370;28;20462;-60
2021/10/21 00:48:39;;;;;;;21.40;11.95;;;;;;;4.70;77.49;97258.69;5094245;28;20024;-62
2021/10/21 00:51:07;;;;;;;15.98;11.98;;;;;;;4.72;77.44;97251.78;5094087;28;20016;-62
2021/10/21 00:53:34;;;;;;;17.88;10.82;;;;;;;4.67;77.01;97251.78;5093969;28;20089;-61
2021/10/21 00:56:05;;;;;;;15.63;10.40;;;;;;;4.64;76.90;97254.38;5094026;28;20020;-61
2021/10/21 00:58:32;;;;;;;19.60;12.77;;;;;;;4.62;77.63;97250.94;5093983;28;20047;-61
2021/10/21 01:00:59;;;;;;;17.80;11.80;;;;;;;4.64;77.53;97250.03;5093941;28;20028;-61
2021/10/21 01:03:24;;;;;;;16.50;11.93;;;;;;;4.65;77.62;97245.75;5093775;28;20024;-63
2021/10/21 01:05:50;;;;;;;18.27;11.55;;;;;;;4.61;78.30;97239.69;5093579;28;20474;-61
2021/10/21 01:08:16;;;;;;;16.83;11.93;;;;;;;4.61;78.11;97246.63;5093799;28;20029;-63
2021/10/21 01:10:43;;;;;;;14.57;11.40;;;;;;;4.60;77.82;97239.72;5093839;28;20031;-61
2021/10/21 01:13:08;;;;;;;13.15;10.15;;;;;;;4.60;77.07;97231.94;5093780;28;20053;-61
2021/10/21 01:15:34;;;;;;;13.77;10.38;;;;;;;4.54;77.30;97228.50;5093658;28;20020;-61
2021/10/21 01:18:00;;;;;;;18.05;12.55;;;;;;;4.54;77.08;97225.03;5093571;28;20436;-61
2021/10/21 01:20:27;;;;;;;13.15;10.70;;;;;;;4.55;77.28;97219.00;5093618;28;20024;-63
2021/10/21 01:22:53;;;;;;;15.85;11.95;;;;;;;4.49;77.39;97221.59;5093549;28;20393;-63
2021/10/21 01:25:19;;;;;;;18.38;12.85;;;;;;;4.41;77.64;97219.03;5093116;28;20028;-63
2021/10/21 01:27:47;;;;;;;21.70;12.95;;;;;;;4.42;78.20;97220.75;5093681;28;20489;-63
2021/10/21 01:30:31;;;;;;;16.38;11.23;;;;;;;4.44;78.58;97221.59;5093545;28;20454;-61
2021/10/21 01:32:57;;;;;;;16.00;11.40;;;;;;;4.42;78.45;97224.22;5093511;28;20028;-63
2021/10/21 01:35:22;;;;;;;20.75;11.48;;;;;;;4.46;77.36;97217.31;5093414;28;20022;-63
2021/10/21 01:37:48;;;;;;;17.20;11.15;;;;;;;4.43;77.75;97222.50;5075288;28;20359;-62
2021/10/21 01:40:18;;;;;;;15.18;10.55;;;;;;;4.43;76.89;97215.56;5093351;28;20094;-61
2021/10/21 01:42:44;;;;;;;15.40;10.43;;;;;;;4.40;76.57;97219.91;5093340;28;20016;-63
2021/10/21 01:45:17;;;;;;;17.23;10.57;;;;;;;4.35;76.99;97217.31;5093219;28;20031;-62
2021/10/21 01:47:43;;;;;;;18.70;11.50;;;;;;;4.32;77.00;97225.09;5093386;28;20016;-62
2021/10/21 01:50:09;;;;;;;15.63;11.70;;;;;;;4.30;79.12;97214.72;5093102;28;20027;-63
2021/10/21 01:52:35;;;;;;;17.38;12.05;;;;;;;4.30;78.74;97206.97;5093122;28;20024;-63
2021/10/21 01:55:00;;;;;;;18.60;11.93;;;;;;;4.33;78.95;97213.00;5093042;28;20012;-61
2021/10/21 01:57:26;;;;;;;16.73;11.57;;;;;;;4.28;78.59;97210.44;5093269;28;20470;-60
2021/10/21 01:59:51;;;;;;;15.43;11.35;;;;;;;4.26;78.71;97205.25;5093190;28;20031;-61
2021/10/21 02:02:17;;;;;;;15.32;10.90;;;;;;;4.27;78.21;97206.09;5093036;28;20027;-61
2021/10/21 02:04:42;;;;;;;15.23;11.18;;;;;;;4.24;77.78;97206.13;5092776;28;20052;-61
2021/10/21 02:07:08;;;;;;;16.27;11.80;;;;;;;4.20;77.84;97210.44;5093031;28;20028;-60
2021/10/21 02:09:33;;;;;;;16.30;10.95;;;;;;;4.22;77.49;97210.44;5093231;28;20028;-61
2021/10/21 02:11:59;;;;;;;20.98;11.40;;;;;;;4.20;77.68;97206.97;5093187;28;20462;-61
2021/10/21 02:14:24;;;;;;;16.40;11.50;;;;;;;4.17;77.60;97206.13;5093066;28;20050;-61
2021/10/21 02:16:50;;;;;;;15.30;10.35;;;;;;;4.20;77.52;97201.78;5092990;28;20028;-61
2021/10/21 02:19:15;;;;;;;15.35;11.70;;;;;;;4.10;78.10;97203.53;5093079;28;20081;-61
2021/10/21 02:21:41;;;;;;;19.02;12.07;;;;;;;4.11;78.45;97205.25;5092882;28;20122;-61
2021/10/21 02:24:06;;;;;;;17.63;12.10;;;;;;;4.08;78.93;97203.53;5092821;28;20508;-62
2021/10/21 02:26:32;;;;;;;16.55;11.77;;;;;;;4.07;78.92;97201.84;5092809;28;20028;-60
2021/10/21 02:28:57;;;;;;;14.75;10.75;;;;;;;4.09;78.24;97194.91;5092762;28;20051;-62
2021/10/21 02:31:23;;;;;;;15.00;10.90;;;;;;;4.11;78.08;97198.38;5092758;28;20035;-62
2021/10/21 02:33:48;;;;;;;17.55;10.65;;;;;;;4.12;77.59;97196.66;5092906;28;20024;-60
2021/10/21 02:36:14;;;;;;;16.15;11.27;;;;;;;4.10;77.93;97191.47;5092705;28;20024;-63
2021/10/21 02:38:39;;;;;;;18.35;11.57;;;;;;;4.10;77.97;97185.41;5095101;28;20023;-62
2021/10/21 02:41:05;;;;;;;17.45;11.27;;;;;;;4.10;78.51;97186.28;5096663;28;20016;-62
2021/10/21 02:43:31;;;;;;;16.02;10.15;;;;;;;4.08;78.34;97182.84;5096428;28;20028;-61
2021/10/21 02:45:57;;;;;;;17.52;11.95;;;;;;;4.01;78.07;97186.31;5096660;28;20039;-61
2021/10/21 02:48:22;;;;;;;16.60;11.48;;;;;;;4.04;78.38;97188.88;5096583;28;20474;-61
2021/10/21 02:50:48;;;;;;;14.82;10.15;;;;;;;4.03;77.90;97192.31;5096530;28;20030;-61
2021/10/21 02:53:14;;;;;;;14.10;10.75;;;;;;;4.02;77.47;97181.13;5096362;28;20060;-62
2021/10/21 02:55:39;;;;;;;14.00;10.73;;;;;;;4.03;77.74;97182.84;5096332;28;20020;-63
2021/10/21 02:58:05;;;;;;;17.55;11.52;;;;;;;4.03;77.68;97180.25;5078201;28;20028;-62
2021/10/21 03:00:31;;;;;;;16.42;11.65;;;;;;;4.07;78.53;97180.25;5096380;28;20028;-61
2021/10/21 03:02:56;;;;;;;17.40;10.90;;;;;;;4.09;78.37;97183.72;5096089;28;20024;-61
2021/10/21 03:05:24;;;;;;;17.60;11.50;;;;;;;4.08;77.82;97176.78;5096123;28;20098;-63
2021/10/21 03:07:50;;;;;;;21.48;11.52;;;;;;;4.09;77.55;97179.38;5096440;28;20027;-63
2021/10/21 03:10:15;;;;;;;17.73;11.02;;;;;;;4.09;77.82;97176.78;5096037;28;20382;-61
2021/10/21 03:12:41;;;;;;;16.40;10.32;;;;;;;4.06;77.73;97175.94;5096091;28;20409;-63
2021/10/21 03:15:07;;;;;;;15.57;10.98;;;;;;;4.06;77.36;97173.34;5095946;28;20031;-63
2021/10/21 03:17:33;;;;;;;17.55;11.07;;;;;;;4.03;77.93;97172.47;5096017;28;20103;-62
2021/10/21 03:19:58;;;;;;;16.90;11.65;;;;;;;4.02;77.77;97163.00;5095857;28;20020;-62
2021/10/21 03:22:24;;;;;;;17.48;12.50;;;;;;;3.99;77.73;97172.47;5095998;28;20546;-61
2021/10/21 03:24:51;;;;;;;17.42;11.23;;;;;;;3.98;77.78;97171.66;5095807;28;20032;-62
2021/10/21 03:27:17;;;;;;;15.98;11.63;;;;;;;4.00;77.85;97167.31;5095763;28;20032;-62
2021/10/21 03:29:42;;;;;;;18.10;13.35;;;;;;;3.99;78.25;97162.13;5095664;28;20097;-61
2021/10/21 03:32:08;;;;;;;16.15;10.20;;;;;;;3.96;77.67;97163.00;5095712;28;20528;-60
2021/10/21 03:34:33;;;;;;;15.85;11.38;;;;;;;3.93;77.69;97157.81;5095752;28;20081;-60
2021/10/21 03:36:59;;;;;;;14.88;10.75;;;;;;;3.89;77.67;97163.88;5095631;28;20062;-60
2021/10/21 03:39:25;;;;;;;13.15;10.02;;;;;;;3.88;76.67;97155.25;5095617;28;20016;-61
2021/10/21 03:41:50;;;;;;;13.43;9.80;;;;;;;3.78;76.59;97150.94;5095487;28;20069;-62
2021/10/21 03:44:16;;;;;;;15.95;12.02;;;;;;;3.65;77.79;97153.53;5095272;28;20024;-62
2021/10/21 03:46:41;;;;;;;19.65;11.68;;;;;;;3.70;78.85;97156.13;5095545;28;20024;-61
2021/10/21 03:49:07;;;;;;;17.65;12.20;;;;;;;3.76;79.00;97150.06;5094911;28;20470;-61
2021/10/21 03:51:32;;;;;;;24.40;18.80;;;;;;;3.76;78.76;97147.47;5095217;28;20060;-61
2021/10/21 03:53:58;;;;;;;17.30;13.32;;;;;;;3.77;78.07;97146.63;5095200;28;20111;-62
2021/10/21 03:56:23;;;;;;;12.95;10.35;;;;;;;3.75;77.61;97140.59;5095271;28;20027;-63
2021/10/21 03:58:49;;;;;;;15.95;11.20;;;;;;;3.74;77.69;97142.34;5095193;28;20423;-63
2021/10/21 04:01:15;;;;;;;14.70;10.68;;;;;;;3.72;77.86;97149.22;5095136;28;20035;-62
2021/10/21 04:03:41;;;;;;;14.82;9.88;;;;;;;3.72;77.91;97133.69;5095040;28;20039;-63
2021/10/21 04:06:06;;;;;;;15.13;9.70;;;;;;;3.73;77.18;97139.75;5094831;28;20076;-61
2021/10/21 04:08:32;;;;;;;15.32;10.60;;;;;;;3.66;76.96;97139.75;5095049;28;20377;-61
2021/10/21 04:10:57;;;;;;;15.20;10.32;;;;;;;3.54;77.63;97135.44;5095181;28;20028;-61
2021/10/21 04:13:23;;;;;;;16.08;9.82;;;;;;;3.49;78.40;97131.13;5094855;28;20024;-61
2021/10/21 04:15:49;;;;;;;18.90;10.52;;;;;;;3.54;78.43;97131.97;5094848;28;20024;-62
2021/10/21 04:18:15;;;;;;;13.35;10.45;;;;;;;3.57;78.68;97133.69;5094776;28;20031;-62
2021/10/21 04:20:41;;;;;;;16.08;9.88;;;;;;;3.57;78.39;97125.94;5094653;28;20416;-62
2021/10/21 04:23:06;;;;;;;14.02;10.40;;;;;;;3.58;77.97;97130.28;5094658;28;20012;-61
2021/10/21 04:25:32;;;;;;;18.15;11.73;;;;;;;3.56;78.43;97122.50;5094644;28;20497;-61
2021/10/21 04:27:58;;;;;;;14.88;10.77;;;;;;;3.57;78.28;97123.34;5094777;28;20103;-63
2021/10/21 04:30:23;;;;;;;14.07;11.13;;;;;;;3.54;78.36;97127.69;5094505;28;20023;-61
2021/10/21 04:32:49;;;;;;;17.75;11.18;;;;;;;3.53;78.22;97119.91;5094577;28;20043;-63
2021/10/21 04:35:14;;;;;;;16.48;10.95;;;;;;;3.52;78.30;97125.94;5094501;28;20027;-62
2021/10/21 04:37:40;;;;;;;14.68;10.63;;;;;;;3.58;78.11;97117.34;5094535;28;20048;-62
2021/10/21 04:40:06;;;;;;;14.27;9.75;;;;;;;3.59;77.53;97121.63;5094260;28;20381;-62
2021/10/21 04:42:32;;;;;;;14.65;9.98;;;;;;;3.58;77.47;97123.34;5094382;28;20047;-61
2021/10/21 04:44:57;;;;;;;16.25;11.57;;;;;;;3.59;77.64;97108.69;5094296;28;20486;-62
2021/10/21 04:47:23;;;;;;;16.63;11.02;;;;;;;3.62;77.83;97112.16;5094367;28;20085;-60
2021/10/21 04:49:49;;;;;;;15.73;12.20;;;;;;;3.64;77.92;97114.72;5094114;28;20061;-61
2021/10/21 04:52:14;;;;;;;18.90;10.98;;;;;;;3.67;78.24;97117.28;5094218;28;20027;-62
2021/10/21 04:54:41;;;;;;;12.77;9.82;;;;;;;3.73;78.05;97111.28;5094056;28;20024;-61
2021/10/21 04:57:07;;;;;;;14.85;10.35;;;;;;;3.74;77.69;97116.44;5093945;28;20032;-61
2021/10/21 04:59:32;;;;;;;15.00;10.60;;;;;;;3.76;77.59;97119.88;5094162;28;20093;-62
2021/10/21 05:01:58;;;;;;;15.27;11.18;;;;;;;3.80;77.74;97115.56;5093314;28;20024;-61
2021/10/21 05:04:24;;;;;;;18.58;11.73;;;;;;;3.79;77.95;97109.53;5093438;28;20060;-62
2021/10/21 05:06:50;;;;;;;25.88;10.98;;;;;;;3.84;77.82;97117.28;5093910;28;20549;-61
2021/10/21 05:09:15;;;;;;;12.77;9.63;;;;;;;3.90;77.03;97119.88;5093797;28;20024;-63
2021/10/21 05:11:41;;;;;;;16.65;11.32;;;;;;;3.94;77.87;97115.53;5093657;28;20027;-63
2021/10/21 05:14:06;;;;;;;18.63;11.48;;;;;;;3.94;78.58;97119.88;5093797;28;20020;-61
2021/10/21 05:16:32;;;;;;;18.02;11.95;;;;;;;3.97;78.44;97109.50;5075655;28;20035;-63
2021/10/21 05:18:58;;;;;;;18.58;12.65;;;;;;;4.32;79.52;97113.69;5093737;28;20027;-63
2021/10/21 05:21:23;;;;;;;15.13;10.80;;;;;;;5.37;76.96;97110.50;5093680;28;20035;-62
2021/10/21 05:23:49;;;;;;;13.80;9.57;;;;;;;6.61;73.45;97107.50;5093581;28;20381;-60
2021/10/21 05:26:14;;;;;;;12.02;8.80;;;;;;;7.84;69.98;97109.13;5093615;28;20020;-61
2021/10/21 05:28:40;;;;;;;12.95;8.10;;;;;;;8.92;64.37;97112.22;5093516;28;20121;-61
2021/10/21 05:31:06;;;;;;;11.40;6.85;;;;;;;9.96;61.38;97110.59;5093610;28;20381;-61
2021/10/21 05:33:35;;;;;;;9.68;7.05;;;;;;;10.97;57.88;97118.28;5093420;28;20027;-63
2021/10/21 05:36:04;;;;;;;8.65;6.60;;;;;;;11.81;53.64;97108.66;5093456;28;20139;-62
2021/10/21 05:38:30;;;;;;;9.63;7.15;;;;;;;12.62;52.48;97114.56;5092106;28;20069;-63
2021/10/21 05:40:55;;;;;;;9.50;6.93;;;;;;;13.43;50.27;97115.03;5093351;28;20024;-63
2021/10/21 05:43:22;;;;;;;8.63;6.93;;;;;;;14.07;49.10;97109.81;5093262;28;20026;-61
2021/10/21 05:45:48;;;;;;;7.85;6.40;;;;;;;14.76;47.68;97115.56;5093292;28;20020;-61
2021/10/21 05:48:16;;;;;;;7.35;6.53;;;;;;;15.28;45.55;97114.91;5093265;28;20020;-61
2021/10/21 05:50:42;;;;;;;12.68;6.28;;;;;;;15.87;45.41;97116.44;5093176;28;20020;-60
2021/10/21 05:53:08;;;;;;;8.27;6.53;;;;;;;16.53;44.50;97115.81;5093305;28;20028;-62
2021/10/21 05:55:33;;;;;;;11.55;6.40;;;;;;;17.17;43.56;97117.69;5093115;28;20070;-63
2021/10/21 05:57:59;;;;;;;7.25;6.53;;;;;;;17.64;42.06;97104.50;5093290;28;20026;-62
2021/10/21 06:00:25;;;;;;;7.10;5.97;;;;;;;18.15;41.52;97111.31;5093151;28;20025;-61
2021/10/21 06:02:50;;;;;;;7.05;6.20;;;;;;;18.73;39.80;97118.41;5093002;28;20027;-62
2021/10/21 06:05:16;;;;;;;7.60;5.93;;;;;;;19.10;39.05;97110.84;5091912;28;20040;-61
2021/10/21 06:07:42;;;;;;;9.30;6.07;;;;;;;19.55;38.55;97100.00;5092992;28;20020;-60
2021/10/21 06:10:08;;;;;;;6.97;6.28;;;;;;;20.15;38.13;97104.06;5093026;28;20516;-63
2021/10/21 06:12:33;;;;;;;8.23;6.47;;;;;;;20.78;37.24;97103.31;5094914;28;20113;-64
2021/10/21 06:15:03;;;;;;;7.25;6.00;;;;;;;21.41;36.36;97102.41;5097168;28;20099;-61
2021/10/21 06:17:29;;;;;;;7.40;6.70;;;;;;;22.02;35.73;97104.16;5097068;28;20039;-60
2021/10/21 06:19:54;;;;;;;7.70;6.55;;;;;;;22.58;34.27;97110.56;5097068;28;20024;-62
2021/10/21 06:22:20;;;;;;;7.18;6.40;;;;;;;23.27;32.92;97113.16;5097196;28;20541;-61
2021/10/21 06:24:47;;;;;;;6.90;6.00;;;;;;;23.65;32.53;97107.50;5096959;28;20025;-64
2021/10/21 06:27:13;;;;;;;6.82;6.20;;;;;;;23.98;32.19;97111.03;5078818;28;20047;-61
2021/10/21 06:29:40;;;;;;;7.47;6.50;;;;;;;24.35;31.17;97105.25;5096963;28;20021;-63
2021/10/21 06:32:07;;;;;;;8.65;6.68;;;;;;;24.78;30.62;97107.88;5096732;28;20166;-63
2021/10/21 06:34:34;;;;;;;6.60;5.88;;;;;;;25.28;29.77;97103.53;5096716;28;20466;-62
2021/10/21 06:37:00;;;;;;;7.68;6.97;;;;;;;25.46;29.46;97109.06;5096779;28;20505;-63
2021/10/21 06:39:25;;;;;;;6.60;5.95;;;;;;;25.66;29.15;97108.25;5096813;28;20063;-62
2021/10/21 06:41:51;;;;;;;8.73;6.43;;;;;;;25.85;29.18;97102.91;5096703;28;20024;-60
2021/10/21 06:44:17;;;;;;;7.18;6.22;;;;;;;26.20;28.88;97097.94;5096576;28;20024;-61
2021/10/21 06:46:42;;;;;;;8.00;6.53;;;;;;;26.58;28.43;97105.22;5096824;28;20456;-61
2021/10/21 06:49:08;;;;;;;6.93;6.22;;;;;;;26.80;28.39;97101.31;5096578;28;20024;-63
2021/10/21 06:51:34;;;;;;;7.43;6.72;;;;;;;27.11;27.61;97097.50;5096480;28;20028;-61
2021/10/21 06:54:00;;;;;;;7.57;6.88;;;;;;;27.45;27.36;97098.75;5096338;28;20406;-64
2021/10/21 06:56:26;;;;;;;9.10;7.43;;;;;;;27.57;27.03;97097.50;5096360;28;20027;-61
2021/10/21 06:58:52;;;;;;;8.60;7.28;;;;;;;27.28;27.27;97093.19;5096363;28;20024;-63
2021/10/21 07:01:18;;;;;;;9.27;7.47;;;;;;;27.62;27.44;97086.31;5078088;28;20432;-61
2021/10/21 07:03:44;;;;;;;8.02;7.22;;;;;;;27.73;27.33;97091.50;5096273;28;20024;-62
2021/10/21 07:06:10;;;;;;;8.48;6.68;;;;;;;27.77;27.07;97097.38;5096002;28;20040;-60
2021/10/21 07:08:35;;;;;;;7.55;6.75;;;;;;;27.62;27.05;97092.53;5096253;28;20024;-63
2021/10/21 07:11:02;;;;;;;10.02;6.75;;;;;;;28.07;26.62;97091.75;5078163;28;20115;-62
2021/10/21 07:13:28;;;;;;;8.50;7.60;;;;;;;27.94;26.49;97086.78;5096134;28;20386;-63
2021/10/21 07:15:54;;;;;;;9.60;8.13;;;;;;;27.75;26.81;97086.78;5096008;28;20470;-60
2021/10/21 07:18:20;;;;;;;13.25;10.82;;;;;;;27.53;27.39;97085.38;5095958;28;20028;-60
2021/10/21 07:20:45;;;;;;;10.45;8.38;;;;;;;27.87;26.86;97078.47;5096035;28;20550;-59
2021/10/21 07:23:11;;;;;;;8.05;7.25;;;;;;;28.12;27.23;97076.00;5095147;28;20061;-61
2021/10/21 07:25:36;;;;;;;10.13;7.78;;;;;;;28.12;26.64;97082.19;5095803;28;20062;-63
2021/10/21 07:28:03;;;;;;;8.23;7.40;;;;;;;28.38;27.06;97072.50;5095852;28;20363;-64
2021/10/21 07:30:29;;;;;;;8.30;7.50;;;;;;;28.41;26.17;97066.78;5095700;28;20031;-62
2021/10/21 07:33:00;;;;;;;8.95;8.05;;;;;;;28.18;27.05;97053.00;5095623;28;20016;-61
2021/10/21 07:35:27;;;;;;;10.43;7.80;;;;;;;27.83;27.30;97055.59;5095673;28;20386;-64
2021/10/21 07:37:53;;;;;;;10.85;9.20;;;;;;;27.41;27.98;97065.97;5095572;28;20032;-64
2021/10/21 07:40:18;;;;;;;10.98;8.75;;;;;;;27.10;28.31;97053.75;5095772;28;20032;-62
2021/10/21 07:42:44;;;;;;;10.48;9.15;;;;;;;26.75;28.56;97048.09;5095616;28;20035;-63
2021/10/21 07:45:11;;;;;;;11.30;9.25;;;;;;;26.24;29.76;97045.72;5077400;28;20050;-64
2021/10/21 07:47:38;;;;;;;11.63;9.85;;;;;;;25.65;30.38;97039.63;5095515;28;20028;-62
2021/10/21 07:50:06;;;;;;;11.85;10.13;;;;;;;24.69;31.75;97033.78;5095303;28;20116;-62
2021/10/21 07:52:33;;;;;;;12.32;9.82;;;;;;;23.93;33.58;97039.28;5095324;28;20039;-61
2021/10/21 07:54:59;;;;;;;11.65;10.45;;;;;;;23.34;33.96;97033.47;5095232;28;20032;-63
2021/10/21 07:57:26;;;;;;;11.88;10.32;;;;;;;22.65;34.39;97036.31;5095214;28;20036;-62
2021/10/21 07:59:53;;;;;;;15.13;13.48;;;;;;;22.25;35.36;97026.09;5095177;28;20032;-64
2021/10/21 08:02:19;;;;;;;15.30;10.75;;;;;;;21.90;36.24;97022.53;5095105;28;20012;-63
2021/10/21 08:04:45;;;;;;;12.63;11.25;;;;;;;21.50;37.52;97026.38;5094843;28;20052;-62
2021/10/21 08:07:11;;;;;;;13.25;10.77;;;;;;;21.11;39.20;97021.25;5094986;28;20024;-61
2021/10/21 08:09:37;;;;;;;14.45;10.38;;;;;;;20.47;41.38;97017.78;5095024;28;20020;-60
2021/10/21 08:12:05;;;;;;;11.90;10.60;;;;;;;20.04;41.65;97019.84;5094973;28;20470;-60
2021/10/21 08:14:31;;;;;;;11.85;10.65;;;;;;;19.59;43.62;97013.06;5094802;28;20024;-63
2021/10/21 08:16:58;;;;;;;10.77;9.70;;;;;;;19.36;45.39;97004.00;5094983;28;20437;-60
2021/10/21 08:19:27;;;;;;;11.30;9.45;;;;;;;19.35;44.30;97005.81;5094829;28;20421;-61
2021/10/21 08:21:54;;;;;;;11.82;8.95;;;;;;;19.32;44.65;97003.34;5094765;28;20440;-62
2021/10/21 08:24:21;;;;;;;10.68;9.50;;;;;;;19.34;44.31;96995.28;5094725;28;20031;-63
2021/10/21 08:26:48;;;;;;;9.88;8.45;;;;;;;19.45;43.79;96988.31;5094666;28;20028;-61
2021/10/21 08:29:15;;;;;;;10.27;9.15;;;;;;;19.39;44.96;96990.56;5094659;28;20058;-62
2021/10/21 08:31:40;;;;;;;17.35;12.10;;;;;;;19.37;44.92;96990.66;5094534;28;20016;-61
2021/10/21 08:34:06;;;;;;;14.68;10.55;;;;;;;19.05;45.74;96980.34;5094547;28;20020;-63
2021/10/21 08:36:32;;;;;;;15.25;10.43;;;;;;;19.05;46.19;96975.03;5093297;28;20020;-61
2021/10/21 08:38:57;;;;;;;18.08;11.30;;;;;;;18.97;47.88;96986.16;5094509;28;20499;-62
2021/10/21 08:41:25;;;;;;;17.85;11.68;;;;;;;18.89;46.95;96968.09;5076289;28;20020;-61
2021/10/21 08:43:51;;;;;;;19.35;10.70;;;;;;;18.81;48.11;96971.25;5094273;28;20169;-60
2021/10/21 08:46:27;;;;;;;19.10;10.48;;;;;;;18.96;46.22;96967.72;5094289;28;20485;-64
2021/10/21 08:49:00;;;;;;;13.07;9.55;;;;;;;19.12;45.55;96972.88;5094389;28;20397;-61
2021/10/21 08:51:29;;;;;;;16.50;10.50;;;;;;;19.19;46.54;96964.41;5094154;28;20111;-62
2021/10/21 08:53:55;;;;;;;12.10;9.82;;;;;;;19.12;46.46;96957.81;5094314;28;20536;-61
2021/10/21 08:56:25;;;;;;;12.30;9.85;;;;;;;19.17;45.65;96958.34;5094229;28;20158;-64
2021/10/21 08:58:54;;;;;;;11.82;9.43;;;;;;;19.11;45.87;96957.94;5075957;28;20084;-62
2021/10/21 09:01:30;;;;;;;11.98;9.93;;;;;;;19.17;45.95;96953.06;5093905;28;20032;-62
2021/10/21 09:04:17;;;;;;;14.02;9.90;;;;;;;19.13;45.76;96943.59;5094123;28;20457;-63
2021/10/21 09:09:20;;;;;;;14.60;10.50;;;;;;;19.28;46.63;96947.03;5053773;28;20025;-62
2021/10/21 09:12:00;;;;;;;17.25;11.00;;;;;;;19.23;45.67;96943.84;5053664;28;20024;-62
2021/10/21 09:14:34;;;;;;;12.43;9.75;;;;;;;19.22;45.13;96933.31;5052513;28;20055;-61
2021/10/21 09:17:02;;;;;;;14.40;11.40;;;;;;;19.17;46.28;96937.16;5053560;28;20052;-60
2021/10/21 09:19:28;;;;;;;18.60;11.15;;;;;;;19.11;46.56;96931.41;5053619;28;20063;-63
2021/10/21 09:21:55;;;;;;;17.75;13.00;;;;;;;19.09;46.11;96931.53;5053675;28;20482;-62
2021/10/21 09:24:23;;;;;;;16.60;12.60;;;;;;;19.07;45.94;96928.06;5053445;28;20028;-63
2021/10/21 09:27:11;;;;;;;16.42;13.60;;;;;;;18.84;46.32;96927.78;5053367;28;20051;-60
2021/10/21 09:29:40;;;;;;;17.25;14.73;;;;;;;18.89;47.67;96923.03;5053418;28;20033;-61
2021/10/21 09:32:27;;;;;;;22.38;16.48;;;;;;;18.74;48.17;96914.31;5053304;28;20021;-63
2021/10/21 09:34:59;;;;;;;17.85;15.00;;;;;;;18.49;48.13;96907.09;5053231;28;20029;-63
2021/10/21 09:37:44;;;;;;;22.15;15.38;;;;;;;18.53;47.20;96903.28;5053252;28;20029;-60
2021/10/21 09:40:40;;;;;;;17.00;15.20;;;;;;;18.50;47.97;96903.50;5053292;28;20079;-61
2021/10/21 09:43:11;;;;;;;18.35;14.77;;;;;;;18.56;48.70;96900.44;5053197;28;20390;-63
2021/10/21 09:45:41;;;;;;;21.13;15.85;;;;;;;18.68;48.92;96888.19;5053196;28;20029;-61
2021/10/21 09:48:08;;;;;;;21.98;14.48;;;;;;;18.75;47.67;96883.38;5052648;28;20442;-62
2021/10/21 09:50:39;;;;;;;21.05;14.85;;;;;;;18.72;48.18;96876.44;5052895;28;20075;-62
2021/10/21 09:53:31;;;;;;;18.20;13.90;;;;;;;18.63;48.21;96879.72;5052490;28;20051;-63
2021/10/21 09:55:59;;;;;;;18.95;15.75;;;;;;;18.55;48.06;96874.94;5053165;28;20391;-59
2021/10/21 09:58:26;;;;;;;19.75;13.80;;;;;;;18.40;48.10;96871.47;5052898;28;20024;-62
2021/10/21 10:01:10;;;;;;;17.77;15.02;;;;;;;18.43;48.17;96863.31;5052355;28;20135;-61
2021/10/21 10:03:42;;;;;;;16.27;13.40;;;;;;;18.37;47.57;96867.22;5052864;28;20029;-61
2021/10/21 10:06:08;;;;;;;20.65;13.98;;;;;;;18.42;48.59;96864.25;5087607;28;20486;-60
2021/10/21 10:08:35;;;;;;;20.92;14.52;;;;;;;18.24;47.57;96856.56;5092997;28;20027;-63
2021/10/21 10:11:10;;;;;;;16.95;14.65;;;;;;;18.27;48.74;96866.13;5092990;28;20116;-61
2021/10/21 10:13:38;;;;;;;27.13;20.95;;;;;;;18.20;49.06;96860.34;5092953;28;20480;-63
2021/10/21 10:16:04;;;;;;;17.25;14.82;;;;;;;18.31;48.43;96852.56;5092986;28;20538;-63
2021/10/21 10:18:32;;;;;;;19.73;14.68;;;;;;;18.22;48.80;96847.88;5092970;28;20028;-61
2021/10/21 10:21:18;;;;;;;17.13;14.13;;;;;;;18.23;49.41;96848.72;5093147;28;20452;-59
2021/10/21 10:24:03;;;;;;;17.13;15.13;;;;;;;18.18;48.35;96849.88;5092902;28;20532;-63
2021/10/21 10:26:49;;;;;;;22.70;13.57;;;;;;;17.96;48.22;96841.56;5092946;28;20028;-62
2021/10/21 10:29:42;;;;;;;17.52;14.45;;;;;;;17.91;49.98;96837.41;5092877;28;20161;-63
2021/10/21 10:32:37;;;;;;;19.05;13.63;;;;;;;17.84;50.17;96829.94;5084164;28;20040;-62
2021/10/21 10:35:06;;;;;;;19.05;13.88;;;;;;;17.99;49.54;96826.34;5090552;28;20062;-63
2021/10/21 10:37:32;;;;;;;16.08;14.32;;;;;;;17.80;49.77;96814.31;5092825;28;20024;-60
2021/10/21 10:39:59;;;;;;;17.38;13.35;;;;;;;17.76;49.29;96810.13;5092776;28;20027;-62
2021/10/21 10:42:37;;;;;;;16.23;14.52;;;;;;;17.82;47.39;96800.94;5092774;28;20020;-61
2021/10/21 10:45:08;;;;;;;15.18;12.43;;;;;;;17.78;48.60;96802.94;5092708;28;20469;-60
2021/10/21 10:47:41;;;;;;;;;;;;;;;17.75;49.60;96797.84;5093236;28;20077;-60
2021/10/21 10:50:29;;;;;;;17.42;13.38;;;;;;;17.71;49.68;96801.66;5092784;28;20350;-62
2021/10/21 10:52:56;;;;;;;15.73;12.85;;;;;;;17.78;48.47;96795.00;5079403;28;20051;-61
2021/10/21 10:55:24;;;;;;;19.60;13.43;;;;;;;17.74;49.63;96784.72;5092648;28;20059;-63
2021/10/21 10:57:53;;;;;;;16.75;13.00;;;;;;;17.68;49.99;96784.19;5092621;28;20097;-61
2021/10/21 11:00:37;;;;;;;18.73;13.50;;;;;;;17.84;49.51;96782.31;5095817;28;20024;-63
2021/10/21 11:03:04;;;;;;;14.63;13.05;;;;;;;17.78;49.12;96775.63;5096232;28;20024;-60
2021/10/21 11:05:45;;;;;;;17.58;14.48;;;;;;;17.72;49.21;96784.81;5096014;28;20515;-61
2021/10/21 11:08:13;;;;;;;16.20;12.35;;;;;;;17.70;49.02;96772.66;5096182;28;20492;-63
2021/10/21 11:10:39;;;;;;;12.95;11.50;;;;;;;17.65;49.44;96765.84;5096193;28;20031;-63
2021/10/21 11:13:39;;;;;;;14.98;11.68;;;;;;;17.63;49.85;96758.94;5078108;28;20020;-62
2021/10/21 11:16:43;;;;;;;18.20;11.90;;;;;;;17.48;48.78;96768.69;5051944;28;20036;-60
2021/10/21 11:19:13;;;;;;;15.88;11.93;;;;;;;17.37;49.19;96758.81;5096125;28;20028;-59
2021/10/21 11:21:58;;;;;;;17.35;12.70;;;;;;;17.22;49.23;96748.22;5096093;28;20130;-63
2021/10/21 11:24:42;;;;;;;14.13;11.60;;;;;;;17.17;49.35;96755.59;5095880;28;20502;-63
2021/10/21 11:27:08;;;;;;;15.35;11.65;;;;;;;17.27;48.56;96756.72;5095880;28;20032;-62
2021/10/21 11:29:34;;;;;;;17.65;12.57;;;;;;;17.20;48.62;96755.41;5095757;28;20504;-64
2021/10/21 11:32:02;;;;;;;13.48;11.45;;;;;;;17.19;49.57;96745.78;5095688;28;20073;-60